sensor_id;sensor_type;location;lat;lon;timestamp;pressure;altitude;pressure_sealevel;temperature;humidity
12913;BME280;6524;51.368;11.984;2023-08-08T04:00:29;154860.97;;;10.66;65.43
12913;BME280;6524;51.368;11.984;2023-08-08T04:05:30;154866.22;;;10.68;65.56
12913;BME280;6524;51.368;11.984;2023-08-08T04:10:30;154853.13;;;10.63;65.77
12913;BME280;6524;51.368;11.984;2023-08-08T04:15:30;154824.44;;;10.52;65.72
12913;BME280;6524;51.368;11.984;2023-08-08T04:20:31;154832.25;;;10.55;65.70
12913;BME280;6524;51.368;11.984;2023-08-08T04:25:31;154794.38;;;10.40;65.74
12913;BME280;6524;51.368;11.984;2023-08-08T04:30:31;154800.91;;;10.43;66.10
12913;BME280;6524;51.368;11.984;2023-08-08T04:35:32;154837.47;;;10.57;65.78
12913;BME280;6524;51.368;11.984;2023-08-08T04:40:32;154880.66;;;10.74;65.66
12913;BME280;6524;51.368;11.984;2023-08-08T04:45:33;154870.09;;;10.70;65.25
12913;BME280;6524;51.368;11.984;2023-08-08T04:50:33;154834.84;;;10.56;66.00
12913;BME280;6524;51.368;11.984;2023-08-08T04:55:34;154883.25;;;10.75;65.00
12913;BME280;6524;51.368;11.984;2023-08-08T05:00:34;154905.47;;;10.84;64.58
12913;BME280;6524;51.368;11.984;2023-08-08T05:05:35;154900.22;;;10.82;64.40
12913;BME280;6524;51.368;11.984;2023-08-08T05:10:35;154926.34;;;10.92;64.21
12913;BME280;6524;51.368;11.984;2023-08-08T05:15:36;154918.50;;;10.89;63.81
12913;BME280;6524;51.368;11.984;2023-08-08T05:20:36;154837.47;;;10.57;64.57
12913;BME280;6524;51.368;11.984;2023-08-08T05:25:36;154866.22;;;10.68;64.14
12913;BME280;6524;51.368;11.984;2023-08-08T05:30:37;154892.38;;;10.79;64.57
12913;BME280;6524;51.368;11.984;2023-08-08T05:35:37;154845.28;;;10.60;64.46
12913;BME280;6524;51.368;11.984;2023-08-08T05:40:37;154909.34;;;10.85;63.55
12913;BME280;6524;51.368;11.984;2023-08-08T05:45:38;154889.78;;;10.78;64.02
12913;BME280;6524;51.368;11.984;2023-08-08T05:50:39;154910.66;;;10.86;64.13
12913;BME280;6524;51.368;11.984;2023-08-08T05:55:41;154996.91;;;11.19;63.51
12913;BME280;6524;51.368;11.984;2023-08-08T06:00:42;154928.97;;;10.93;64.25
12913;BME280;6524;51.368;11.984;2023-08-08T06:05:42;154888.47;;;10.77;65.09
12913;BME280;6524;51.368;11.984;2023-08-08T06:10:43;155002.16;;;11.22;65.94
12913;BME280;6524;51.368;11.984;2023-08-08T06:15:43;155111.94;;;11.64;64.50
12913;BME280;6524;51.368;11.984;2023-08-08T06:20:43;155219.19;;;12.06;62.80
12913;BME280;6524;51.368;11.984;2023-08-08T06:25:44;155266.25;;;12.25;62.62
12913;BME280;6524;51.368;11.984;2023-08-08T06:30:44;155344.72;;;12.55;61.19
12913;BME280;6524;51.368;11.984;2023-08-08T06:35:44;155389.22;;;12.73;60.96
12913;BME280;6524;51.368;11.984;2023-08-08T06:40:45;155476.88;;;13.07;59.60
12913;BME280;6524;51.368;11.984;2023-08-08T06:45:45;155352.59;;;12.59;60.14
12913;BME280;6524;51.368;11.984;2023-08-08T06:50:45;155415.38;;;12.83;59.18
12913;BME280;6524;51.368;11.984;2023-08-08T06:55:46;155458.59;;;13.00;59.39
12913;BME280;6524;51.368;11.984;2023-08-08T07:00:46;155469.03;;;13.04;58.85
12913;BME280;6524;51.368;11.984;2023-08-08T07:05:46;155363.09;;;12.63;61.00
12913;BME280;6524;51.368;11.984;2023-08-08T07:10:51;155471.63;;;13.05;59.77
12913;BME280;6524;51.368;11.984;2023-08-08T07:15:52;155435.03;;;12.91;59.76
12913;BME280;6524;51.368;11.984;2023-08-08T07:20:52;155486.03;;;13.11;60.12
12913;BME280;6524;51.368;11.984;2023-08-08T07:25:53;155609.09;;;13.59;58.92
12913;BME280;6524;51.368;11.984;2023-08-08T07:30:53;155558.06;;;13.39;58.36
12913;BME280;6524;51.368;11.984;2023-08-08T07:35:53;155637.91;;;13.70;58.40
12913;BME280;6524;51.368;11.984;2023-08-08T07:40:53;155768.84;;;14.21;57.71
12913;BME280;6524;51.368;11.984;2023-08-08T07:45:54;155928.63;;;14.83;55.97
12913;BME280;6524;51.368;11.984;2023-08-08T07:50:54;156007.31;;;15.14;53.93
12913;BME280;6524;51.368;11.984;2023-08-08T07:55:54;156003.34;;;15.13;54.43
12913;BME280;6524;51.368;11.984;2023-08-08T08:00:55;156021.72;;;15.20;54.20
12913;BME280;6524;51.368;11.984;2023-08-08T08:05:55;156074.13;;;15.40;53.76
12913;BME280;6524;51.368;11.984;2023-08-08T08:10:55;156105.56;;;15.52;52.23
12913;BME280;6524;51.368;11.984;2023-08-08T08:15:56;156167.22;;;15.76;52.36
12913;BME280;6524;51.368;11.984;2023-08-08T08:20:56;156129.16;;;15.62;52.84
12913;BME280;6524;51.368;11.984;2023-08-08T08:25:57;156134.41;;;15.64;52.28
12913;BME280;6524;51.368;11.984;2023-08-08T08:30:57;155915.56;;;14.78;55.34
12913;BME280;6524;51.368;11.984;2023-08-08T08:35:57;156009.91;;;15.15;54.31
12913;BME280;6524;51.368;11.984;2023-08-08T08:40:58;155941.75;;;14.89;55.87
12913;BME280;6524;51.368;11.984;2023-08-08T08:46:00;155968.00;;;14.99;55.19
12913;BME280;6524;51.368;11.984;2023-08-08T08:51:02;156112.13;;;15.55;54.02
12913;BME280;6524;51.368;11.984;2023-08-08T08:56:03;156040.06;;;15.27;54.04
12913;BME280;6524;51.368;11.984;2023-08-08T09:01:04;155696.78;;;13.93;58.37
12913;BME280;6524;51.368;11.984;2023-08-08T09:06:05;155588.19;;;13.51;61.09
12913;BME280;6524;51.368;11.984;2023-08-08T09:11:05;155522.69;;;13.25;63.52
12913;BME280;6524;51.368;11.984;2023-08-08T09:16:06;155637.91;;;13.70;61.40
12913;BME280;6524;51.368;11.984;2023-08-08T09:21:08;155874.91;;;14.62;58.81
12913;BME280;6524;51.368;11.984;2023-08-08T09:26:08;156172.50;;;15.78;54.21
12913;BME280;6524;51.368;11.984;2023-08-08T09:31:09;156135.72;;;15.64;53.92
12913;BME280;6524;51.368;11.984;2023-08-08T09:36:16;156120.00;;;15.58;53.80
12913;BME280;6524;51.368;11.984;2023-08-08T09:41:16;156186.88;;;15.84;53.11
12913;BME280;6524;51.368;11.984;2023-08-08T09:46:19;156198.69;;;15.89;52.32
12913;BME280;6524;51.368;11.984;2023-08-08T09:51:20;156615.84;;;17.51;48.86
12913;BME280;6524;51.368;11.984;2023-08-08T09:56:23;156702.47;;;17.85;46.54
12913;BME280;6524;51.368;11.984;2023-08-08T10:01:24;156639.47;;;17.60;47.26
12913;BME280;6524;51.368;11.984;2023-08-08T10:06:26;156227.50;;;16.00;50.75
12913;BME280;6524;51.368;11.984;2023-08-08T10:11:27;156062.34;;;15.36;54.22
12913;BME280;6524;51.368;11.984;2023-08-08T10:16:32;156030.88;;;15.23;54.93
12913;BME280;6524;51.368;11.984;2023-08-08T10:21:34;156146.19;;;15.68;52.51
12913;BME280;6524;51.368;11.984;2023-08-08T10:26:56;156074.13;;;15.40;51.51
12913;BME280;6524;51.368;11.984;2023-08-08T10:31:59;155928.63;;;14.83;53.60
12913;BME280;6524;51.368;11.984;2023-08-08T10:37:00;155970.59;;;15.00;55.01
12913;BME280;6524;51.368;11.984;2023-08-08T10:42:03;156148.91;;;15.69;52.60
12913;BME280;6524;51.368;11.984;2023-08-08T10:47:04;156198.69;;;15.89;52.49
12913;BME280;6524;51.368;11.984;2023-08-08T10:52:05;156243.25;;;16.06;51.04
12913;BME280;6524;51.368;11.984;2023-08-08T10:57:15;156518.78;;;17.13;49.17
12913;BME280;6524;51.368;11.984;2023-08-08T11:02:15;156870.56;;;18.50;44.84
12913;BME280;6524;51.368;11.984;2023-08-08T11:07:16;156976.91;;;18.92;44.64
12913;BME280;6524;51.368;11.984;2023-08-08T11:12:16;156980.88;;;18.93;43.36
12913;BME280;6524;51.368;11.984;2023-08-08T11:17:17;156833.78;;;18.36;44.44
12913;BME280;6524;51.368;11.984;2023-08-08T11:22:20;156896.88;;;18.61;44.65
12913;BME280;6524;51.368;11.984;2023-08-08T11:27:23;156783.91;;;18.17;44.29
12913;BME280;6524;51.368;11.984;2023-08-08T11:32:28;156828.50;;;18.34;44.32
12913;BME280;6524;51.368;11.984;2023-08-08T11:37:28;156810.16;;;18.27;42.07
12913;BME280;6524;51.368;11.984;2023-08-08T11:42:28;156689.34;;;17.80;43.46
12913;BME280;6524;51.368;11.984;2023-08-08T11:47:29;156459.66;;;16.90;45.47
12913;BME280;6524;51.368;11.984;2023-08-08T11:52:32;156395.41;;;16.65;46.08
12913;BME280;6524;51.368;11.984;2023-08-08T11:57:35;156459.66;;;16.90;46.10
12913;BME280;6524;51.368;11.984;2023-08-08T12:02:35;156807.50;;;18.26;43.85
12913;BME280;6524;51.368;11.984;2023-08-08T12:07:35;156920.44;;;18.70;41.18
12913;BME280;6524;51.368;11.984;2023-08-08T12:12:36;156923.09;;;18.71;41.45
12913;BME280;6524;51.368;11.984;2023-08-08T12:17:37;156878.44;;;18.53;41.40
12913;BME280;6524;51.368;11.984;2023-08-08T12:22:38;156786.53;;;18.18;42.18
12913;BME280;6524;51.368;11.984;2023-08-08T12:27:38;156692.00;;;17.81;43.50
12913;BME280;6524;51.368;11.984;2023-08-08T12:32:39;156676.19;;;17.75;42.77
12913;BME280;6524;51.368;11.984;2023-08-08T12:37:39;156833.78;;;18.36;41.53
12913;BME280;6524;51.368;11.984;2023-08-08T12:42:39;156739.25;;;17.99;42.14
12913;BME280;6524;51.368;11.984;2023-08-08T12:47:40;156659.16;;;17.68;42.66
12913;BME280;6524;51.368;11.984;2023-08-08T12:52:40;156854.75;;;18.44;40.95
12913;BME280;6524;51.368;11.984;2023-08-08T12:57:40;156760.28;;;18.07;41.72
12913;BME280;6524;51.368;11.984;2023-08-08T13:02:41;156684.06;;;17.78;43.19
12913;BME280;6524;51.368;11.984;2023-08-08T13:07:41;156689.34;;;17.80;42.00
12913;BME280;6524;51.368;11.984;2023-08-08T13:12:42;156676.19;;;17.75;42.11
12913;BME280;6524;51.368;11.984;2023-08-08T13:17:42;156463.63;;;16.92;41.88
12913;BME280;6524;51.368;11.984;2023-08-08T13:22:42;156529.25;;;17.18;39.09
12913;BME280;6524;51.368;11.984;2023-08-08T13:27:42;156765.50;;;18.10;36.08
12913;BME280;6524;51.368;11.984;2023-08-08T13:32:43;156806.19;;;18.25;36.11
12913;BME280;6524;51.368;11.984;2023-08-08T13:37:43;156951.97;;;18.82;36.04
12913;BME280;6524;51.368;11.984;2023-08-08T13:42:45;156718.25;;;17.91;36.02
12913;BME280;6524;51.368;11.984;2023-08-08T13:47:48;156703.84;;;17.86;37.17
12913;BME280;6524;51.368;11.984;2023-08-08T13:52:49;156463.63;;;16.92;43.30
12913;BME280;6524;51.368;11.984;2023-08-08T13:57:49;156392.78;;;16.64;45.46
12913;BME280;6524;51.368;11.984;2023-08-08T14:02:49;156325.88;;;16.38;46.99
12913;BME280;6524;51.368;11.984;2023-08-08T14:07:50;156248.50;;;16.08;46.73
12913;BME280;6524;51.368;11.984;2023-08-08T14:12:50;156224.91;;;15.99;47.14
12913;BME280;6524;51.368;11.984;2023-08-08T14:17:50;156096.41;;;15.49;49.31
12913;BME280;6524;51.368;11.984;2023-08-08T14:22:50;156164.63;;;15.75;49.09
12913;BME280;6524;51.368;11.984;2023-08-08T14:27:51;156238.03;;;16.04;48.98
12913;BME280;6524;51.368;11.984;2023-08-08T14:32:51;156345.56;;;16.46;48.37
12913;BME280;6524;51.368;11.984;2023-08-08T14:37:52;156392.78;;;16.64;46.42
12913;BME280;6524;51.368;11.984;2023-08-08T14:42:52;156395.41;;;16.65;45.53
12913;BME280;6524;51.368;11.984;2023-08-08T14:47:52;156362.63;;;16.53;46.00
12913;BME280;6524;51.368;11.984;2023-08-08T14:52:53;156248.50;;;16.08;47.81
12913;BME280;6524;51.368;11.984;2023-08-08T14:57:53;156122.59;;;15.59;48.64
12913;BME280;6524;51.368;11.984;2023-08-08T15:02:53;156064.94;;;15.37;49.39
12913;BME280;6524;51.368;11.984;2023-08-08T15:07:55;156058.38;;;15.34;49.33
12913;BME280;6524;51.368;11.984;2023-08-08T15:12:55;156075.41;;;15.41;50.18
12913;BME280;6524;51.368;11.984;2023-08-08T15:17:56;156006.00;;;15.14;51.51
12913;BME280;6524;51.368;11.984;2023-08-08T15:22:57;156002.03;;;15.12;52.03
12913;BME280;6524;51.368;11.984;2023-08-08T15:27:58;156009.91;;;15.15;52.81
12913;BME280;6524;51.368;11.984;2023-08-08T15:32:58;156095.09;;;15.48;52.24
12913;BME280;6524;51.368;11.984;2023-08-08T15:37:58;156127.84;;;15.61;51.31
12913;BME280;6524;51.368;11.984;2023-08-08T15:42:59;156057.09;;;15.33;51.57
12913;BME280;6524;51.368;11.984;2023-08-08T15:47:59;156093.78;;;15.48;51.30
12913;BME280;6524;51.368;11.984;2023-08-08T15:53:00;156088.53;;;15.46;51.60
12913;BME280;6524;51.368;11.984;2023-08-08T15:58:01;156114.72;;;15.56;50.83
12913;BME280;6524;51.368;11.984;2023-08-08T16:03:02;156054.47;;;15.32;49.83
12913;BME280;6524;51.368;11.984;2023-08-08T16:08:03;156114.72;;;15.56;49.31
12913;BME280;6524;51.368;11.984;2023-08-08T16:13:03;156045.31;;;15.29;52.43
12913;BME280;6524;51.368;11.984;2023-08-08T16:18:03;156009.91;;;15.15;51.38
12913;BME280;6524;51.368;11.984;2023-08-08T16:23:04;155931.25;;;14.84;52.51
12913;BME280;6524;51.368;11.984;2023-08-08T16:28:04;155977.16;;;15.02;52.43
12913;BME280;6524;51.368;11.984;2023-08-08T16:33:05;155834.31;;;14.47;53.96
12913;BME280;6524;51.368;11.984;2023-08-08T16:38:05;155893.28;;;14.70;53.41
12913;BME280;6524;51.368;11.984;2023-08-08T16:43:06;155905.06;;;14.74;52.95
12913;BME280;6524;51.368;11.984;2023-08-08T16:48:06;155894.59;;;14.70;53.85
12913;BME280;6524;51.368;11.984;2023-08-08T16:53:06;156029.59;;;15.23;51.94
12913;BME280;6524;51.368;11.984;2023-08-08T16:58:07;155991.59;;;15.08;51.39
12913;BME280;6524;51.368;11.984;2023-08-08T17:03:07;156002.03;;;15.12;51.77
12913;BME280;6524;51.368;11.984;2023-08-08T17:08:08;155970.59;;;15.00;51.28
12913;BME280;6524;51.368;11.984;2023-08-08T17:13:12;155920.78;;;14.80;51.99
12913;BME280;6524;51.368;11.984;2023-08-08T17:18:12;155869.72;;;14.60;52.75
12913;BME280;6524;51.368;11.984;2023-08-08T17:23:13;155920.78;;;14.80;52.10
12913;BME280;6524;51.368;11.984;2023-08-08T17:28:14;155854.00;;;14.54;52.45
12913;BME280;6524;51.368;11.984;2023-08-08T17:33:14;155843.53;;;14.50;52.17
12913;BME280;6524;51.368;11.984;2023-08-08T17:38:14;155768.84;;;14.21;52.67
12913;BME280;6524;51.368;11.984;2023-08-08T17:43:14;155823.84;;;14.43;52.33
12913;BME280;6524;51.368;11.984;2023-08-08T17:48:16;155871.00;;;14.61;51.81
12913;BME280;6524;51.368;11.984;2023-08-08T17:53:16;155774.13;;;14.23;51.71
12913;BME280;6524;51.368;11.984;2023-08-08T17:58:17;155816.00;;;14.39;52.46
12913;BME280;6524;51.368;11.984;2023-08-08T18:03:17;155821.25;;;14.42;52.18
12913;BME280;6524;51.368;11.984;2023-08-08T18:08:18;155643.16;;;13.72;53.45
12913;BME280;6524;51.368;11.984;2023-08-08T18:13:18;155677.19;;;13.85;54.02
12913;BME280;6524;51.368;11.984;2023-08-08T18:18:18;155622.19;;;13.64;55.31
12913;BME280;6524;51.368;11.984;2023-08-08T18:23:19;155585.53;;;13.49;56.20
12913;BME280;6524;51.368;11.984;2023-08-08T18:28:19;155682.44;;;13.87;55.72
12913;BME280;6524;51.368;11.984;2023-08-08T18:33:21;155632.66;;;13.68;55.89
12913;BME280;6524;51.368;11.984;2023-08-08T18:38:21;155598.63;;;13.55;56.24
12913;BME280;6524;51.368;11.984;2023-08-08T18:43:30;155598.63;;;13.55;56.57
12913;BME280;6524;51.368;11.984;2023-08-08T18:48:31;155598.63;;;13.55;56.38
12913;BME280;6524;51.368;11.984;2023-08-08T18:53:32;155556.75;;;13.38;57.42
12913;BME280;6524;51.368;11.984;2023-08-08T18:58:32;155520.03;;;13.24;57.28
12913;BME280;6524;51.368;11.984;2023-08-08T19:03:32;155509.59;;;13.20;57.34
12913;BME280;6524;51.368;11.984;2023-08-08T19:08:36;155544.91;;;13.34;56.85
12913;BME280;6524;51.368;11.984;2023-08-08T19:13:36;155457.22;;;12.99;57.83
12913;BME280;6524;51.368;11.984;2023-08-08T19:18:36;155466.44;;;13.03;57.76
12913;BME280;6524;51.368;11.984;2023-08-08T19:23:38;155483.44;;;13.10;57.25
12913;BME280;6524;51.368;11.984;2023-08-08T19:28:40;155394.47;;;12.75;58.55
12913;BME280;6524;51.368;11.984;2023-08-08T19:33:43;155373.53;;;12.67;59.19
12913;BME280;6524;51.368;11.984;2023-08-08T19:38:43;155326.38;;;12.48;59.97
12913;BME280;6524;51.368;11.984;2023-08-08T19:43:46;155355.25;;;12.60;59.91
12913;BME280;6524;51.368;11.984;2023-08-08T19:48:47;155289.81;;;12.34;61.35
12913;BME280;6524;51.368;11.984;2023-08-08T19:53:50;155394.47;;;12.75;59.97
12913;BME280;6524;51.368;11.984;2023-08-08T19:58:51;155377.47;;;12.68;60.43
12913;BME280;6524;51.368;11.984;2023-08-08T20:03:52;155336.88;;;12.52;61.20
12913;BME280;6524;51.368;11.984;2023-08-08T20:08:52;155279.31;;;12.30;61.75
12913;BME280;6524;51.368;11.984;2023-08-08T20:13:54;155305.50;;;12.40;61.68
12913;BME280;6524;51.368;11.984;2023-08-08T20:18:54;155331.63;;;12.50;61.13
12913;BME280;6524;51.368;11.984;2023-08-08T20:23:55;155370.94;;;12.66;60.64
12913;BME280;6524;51.368;11.984;2023-08-08T20:28:55;155314.63;;;12.44;61.22
12913;BME280;6524;51.368;11.984;2023-08-08T20:33:56;155319.84;;;12.46;61.35
12913;BME280;6524;51.368;11.984;2023-08-08T20:38:57;155267.56;;;12.25;61.97
12913;BME280;6524;51.368;11.984;2023-08-08T20:43:57;155283.25;;;12.31;62.20
12913;BME280;6524;51.368;11.984;2023-08-08T20:48:58;155349.97;;;12.58;61.16
12913;BME280;6524;51.368;11.984;2023-08-08T20:53:58;155305.50;;;12.40;61.74
12913;BME280;6524;51.368;11.984;2023-08-08T20:59:05;155245.31;;;12.17;62.41
12913;BME280;6524;51.368;11.984;2023-08-08T21:04:06;155270.16;;;12.26;62.30
12913;BME280;6524;51.368;11.984;2023-08-08T21:09:07;155342.13;;;12.54;62.40
12913;BME280;6524;51.368;11.984;2023-08-08T21:14:07;155386.63;;;12.72;61.70
12913;BME280;6524;51.368;11.984;2023-08-08T21:19:08;155347.38;;;12.56;62.28
12913;BME280;6524;51.368;11.984;2023-08-08T21:24:09;155293.69;;;12.36;62.88
12913;BME280;6524;51.368;11.984;2023-08-08T21:29:10;155284.56;;;12.32;63.04
12913;BME280;6524;51.368;11.984;2023-08-08T21:34:12;155289.81;;;12.34;63.17
12913;BME280;6524;51.368;11.984;2023-08-08T21:39:12;155330.34;;;12.50;62.78
12913;BME280;6524;51.368;11.984;2023-08-08T21:44:13;155308.09;;;12.41;63.06
12913;BME280;6524;51.368;11.984;2023-08-08T21:49:13;155347.38;;;12.56;62.35
12913;BME280;6524;51.368;11.984;2023-08-08T22:00:40;155368.28;;;12.65;62.26
12913;BME280;6524;51.368;11.984;2023-08-08T22:05:40;155420.63;;;12.85;61.11
12913;BME280;6524;51.368;11.984;2023-08-08T22:10:45;155352.59;;;12.59;60.80
12913;BME280;6524;51.368;11.984;2023-08-08T22:15:45;155383.97;;;12.71;61.30
12913;BME280;6524;51.368;11.984;2023-08-08T22:20:46;155348.69;;;12.57;61.29
12913;BME280;6524;51.368;11.984;2023-08-08T22:25:48;155315.94;;;12.44;61.71
12913;BME280;6524;51.368;11.984;2023-08-08T22:30:50;155281.94;;;12.31;62.55
12913;BME280;6524;51.368;11.984;2023-08-08T22:35:51;155288.44;;;12.33;62.25
12913;BME280;6524;51.368;11.984;2023-08-08T22:40:55;155363.09;;;12.63;61.60
12913;BME280;6524;51.368;11.984;2023-08-08T22:45:55;155318.53;;;12.45;62.51
12913;BME280;6524;51.368;11.984;2023-08-08T22:50:56;155297.66;;;12.37;62.39
12913;BME280;6524;51.368;11.984;2023-08-08T22:55:57;155334.28;;;12.51;62.56
12913;BME280;6524;51.368;11.984;2023-08-08T23:00:57;155283.25;;;12.31;63.22
12913;BME280;6524;51.368;11.984;2023-08-08T23:05:57;155295.00;;;12.36;62.89
12913;BME280;6524;51.368;11.984;2023-08-08T23:10:58;155276.69;;;12.29;63.09
12913;BME280;6524;51.368;11.984;2023-08-08T23:15:59;155292.41;;;12.35;62.31
12913;BME280;6524;51.368;11.984;2023-08-08T23:20:59;155331.63;;;12.50;62.23
12913;BME280;6524;51.368;11.984;2023-08-08T23:26:00;155317.25;;;12.45;62.38
12913;BME280;6524;51.368;11.984;2023-08-08T23:31:00;155428.47;;;12.88;61.42
12913;BME280;6524;51.368;11.984;2023-08-08T23:36:00;155408.84;;;12.80;61.69
12913;BME280;6524;51.368;11.984;2023-08-08T23:41:01;155382.69;;;12.70;62.15
12913;BME280;6524;51.368;11.984;2023-08-08T23:46:01;155355.25;;;12.60;62.12
12913;BME280;6524;51.368;11.984;2023-08-08T23:51:01;155309.41;;;12.42;62.55
12913;BME280;6524;51.368;11.984;2023-08-08T23:56:02;155383.97;;;12.71;62.01
